Time;durP1;ratioP1;P1;durP2;ratioP2;P2;SDS_P1;SDS_P2;PMS_P1;PMS_P2;Temp;Humidity;BMP_temperature;BMP_pressure;BME280_temperature;BME280_humidity;BME280_pressure;Samples;Min_cycle;Max_cycle;Signal;HPM_P1;HPM_P2
2023/06/18 00:01:55;;;;;;;4.18;3.03;;;;;;;18.65;60.21;99518.47;4410185;32;20162;-84
2023/06/18 00:04:20;;;;;;;5.53;3.10;;;;;;;18.60;60.21;99516.13;4424031;32;20085;-84
2023/06/18 00:06:46;;;;;;;4.32;3.20;;;;;;;18.62;60.22;99514.25;4407289;32;20142;-84
2023/06/18 00:09:11;;;;;;;5.53;3.33;;;;;;;18.36;60.19;99505.44;4422159;32;20458;-84
2023/06/18 00:11:36;;;;;;;4.93;3.58;;;;;;;18.51;60.21;99508.00;4407352;32;20143;-84
2023/06/18 00:14:02;;;;;;;4.12;3.25;;;;;;;18.44;60.20;99504.91;4408069;32;29792;-84
2023/06/18 00:16:27;;;;;;;5.53;3.90;;;;;;;18.45;60.20;99498.69;4395325;32;20466;-84
2023/06/18 00:18:52;;;;;;;6.07;3.85;;;;;;;18.43;60.20;99497.97;4408417;32;20102;-83
2023/06/18 00:21:18;;;;;;;6.15;3.97;;;;;;;18.62;60.21;99503.69;4394737;32;24887;-84
2023/06/18 00:23:43;;;;;;;6.47;4.25;;;;;;;18.49;60.21;99505.47;4407459;32;33587;-84
2023/06/18 00:26:09;;;;;;;6.50;4.25;;;;;;;18.57;60.21;99502.31;4406821;32;20427;-84
2023/06/18 00:28:34;;;;;;;6.57;4.30;;;;;;;18.63;60.21;99500.13;4421052;32;29712;-82
2023/06/18 00:31:01;;;;;;;6.00;3.75;;;;;;;18.55;60.21;99502.41;4410211;32;20113;-84
2023/06/18 00:33:26;;;;;;;6.47;3.67;;;;;;;18.59;60.20;99500.41;4395214;32;20104;-85
2023/06/18 00:35:56;;;;;;;6.28;3.87;;;;;;;18.72;60.21;99505.72;4400806;32;20118;-84
2023/06/18 00:38:23;;;;;;;6.37;3.97;;;;;;;18.64;60.21;99503.59;4397229;32;20102;-84
2023/06/18 00:40:49;;;;;;;4.80;3.45;;;;;;;18.62;60.21;99506.34;4423673;32;20128;-84
2023/06/18 00:43:14;;;;;;;6.57;3.75;;;;;;;18.62;60.21;99506.34;4409872;32;20110;-84
2023/06/18 00:45:39;;;;;;;4.65;3.17;;;;;;;18.54;60.21;99505.16;4423245;32;31499;-84
2023/06/18 00:48:05;;;;;;;4.30;3.22;;;;;;;18.55;60.21;99512.94;4423580;32;20098;-84
2023/06/18 00:50:32;;;;;;;6.47;3.40;;;;;;;18.58;60.21;99506.63;4409811;32;20093;-85
2023/06/18 00:52:59;;;;;;;5.32;3.62;;;;;;;18.55;60.21;99504.22;4394744;32;20108;-84
2023/06/18 00:55:27;;;;;;;7.50;3.80;;;;;;;18.32;60.20;99508.41;4404091;32;20105;-84
2023/06/18 00:57:59;;;;;;;6.25;3.95;;;;;;;18.28;60.19;99501.66;4407701;32;20132;-84
2023/06/18 01:00:25;;;;;;;9.82;3.60;;;;;;;18.37;60.19;99506.28;4418100;32;20089;-84
2023/06/18 01:02:53;;;;;;;5.75;3.33;;;;;;;18.51;60.21;99506.22;4424059;32;20150;-85
2023/06/18 01:05:19;;;;;;;4.85;3.40;;;;;;;18.48;60.20;99505.59;4409870;32;20098;-85
2023/06/18 01:07:47;;;;;;;4.62;3.12;;;;;;;18.51;60.21;99508.84;4394046;32;20156;-84
2023/06/18 01:10:13;;;;;;;6.20;3.55;;;;;;;18.51;60.20;99503.56;4404439;32;20102;-84
2023/06/18 01:12:39;;;;;;;6.53;3.92;;;;;;;18.34;60.19;99501.25;4394709;32;20110;-83
2023/06/18 01:15:05;;;;;;;5.60;3.40;;;;;;;18.35;60.19;99503.75;4389335;32;20153;-84
2023/06/18 01:17:33;;;;;;;8.85;4.18;;;;;;;18.17;60.19;99504.16;4382001;32;20110;-85
2023/06/18 01:20:09;;;;;;;6.07;3.87;;;;;;;18.23;60.19;99507.25;4390204;32;20086;-85
2023/06/18 01:22:44;;;;;;;6.45;4.28;;;;;;;18.39;60.20;99499.13;4400897;32;20340;-84
2023/06/18 01:25:10;;;;;;;6.43;4.00;;;;;;;18.26;60.19;99504.41;4409179;32;20129;-83
2023/06/18 01:27:40;;;;;;;5.90;4.07;;;;;;;18.23;60.19;99501.12;4409903;32;20491;-84
2023/06/18 01:30:09;;;;;;;7.28;4.50;;;;;;;18.19;60.19;99502.25;4396438;32;20155;-84
2023/06/18 01:32:36;;;;;;;8.15;4.45;;;;;;;18.01;60.18;99502.56;4423800;32;20077;-83
2023/06/18 01:35:02;;;;;;;6.80;4.35;;;;;;;17.98;60.17;99505.41;4423785;32;20105;-84
2023/06/18 01:37:50;;;;;;;7.55;4.40;;;;;;;17.99;60.19;99504.47;4394515;32;20102;-84
2023/06/18 01:40:43;;;;;;;10.68;4.47;;;;;;;18.03;60.18;99516.47;4399992;32;20156;-84
2023/06/18 01:43:15;;;;;;;9.77;4.40;;;;;;;17.92;60.18;99516.31;4412909;32;20081;-83
2023/06/18 01:45:50;;;;;;;7.15;4.40;;;;;;;18.09;60.18;99515.22;4423074;32;20101;-84
2023/06/18 01:48:16;;;;;;;5.18;3.50;;;;;;;17.85;60.18;99512.41;4394540;32;20206;-82
2023/06/18 01:50:43;;;;;;;8.10;4.15;;;;;;;17.78;60.17;99521.66;4404512;32;20098;-83
2023/06/18 01:53:08;;;;;;;5.90;4.00;;;;;;;17.77;60.17;99515.56;4394785;32;20105;-83
2023/06/18 01:55:37;;;;;;;7.45;4.43;;;;;;;17.85;60.17;99517.69;4416827;32;25487;-84
2023/06/18 01:58:03;;;;;;;6.95;4.43;;;;;;;17.98;60.17;99526.47;4394914;32;20093;-83
2023/06/18 02:00:28;;;;;;;5.50;3.85;;;;;;;18.06;60.18;99523.31;4404201;32;20224;-84
2023/06/18 02:02:54;;;;;;;7.03;4.28;;;;;;;18.00;60.18;99521.94;4423384;32;20140;-84
2023/06/18 02:05:19;;;;;;;5.30;3.85;;;;;;;17.94;60.18;99521.50;4423688;32;20123;-84
2023/06/18 02:07:44;;;;;;;7.35;3.65;;;;;;;18.02;60.18;99522.69;4394474;32;20185;-83
2023/06/18 02:10:10;;;;;;;5.60;3.85;;;;;;;17.99;60.17;99522.06;4388007;32;33362;-84
2023/06/18 02:12:35;;;;;;;7.35;4.10;;;;;;;17.91;60.17;99527.81;4418979;32;20486;-84
2023/06/18 02:15:01;;;;;;;5.35;4.00;;;;;;;17.89;60.17;99529.69;4408471;32;20154;-84
2023/06/18 02:17:28;;;;;;;7.37;5.00;;;;;;;17.78;60.16;99530.41;4422214;32;24486;-84
2023/06/18 02:19:53;;;;;;;5.75;4.40;;;;;;;17.75;60.15;99530.63;4423434;32;20097;-84
2023/06/18 02:22:19;;;;;;;6.30;4.30;;;;;;;17.87;60.17;99522.84;4423665;32;20089;-83
2023/06/18 02:24:45;;;;;;;7.68;4.47;;;;;;;17.76;60.17;99524.41;4409676;32;20097;-84
2023/06/18 02:27:11;;;;;;;7.05;4.57;;;;;;;17.66;60.16;99531.16;4397475;32;20603;-84
2023/06/18 02:29:36;;;;;;;7.43;3.85;;;;;;;17.78;60.17;99529.56;4409325;32;20147;-84
2023/06/18 02:32:02;;;;;;;9.27;5.28;;;;;;;17.90;60.17;99541.06;4409823;32;20388;-82
2023/06/18 02:34:28;;;;;;;7.05;4.20;;;;;;;17.67;60.16;99535.50;4397118;32;20102;-83
2023/06/18 02:36:57;;;;;;;6.55;3.75;;;;;;;17.72;60.16;99535.22;4423820;32;20415;-84
2023/06/18 02:39:22;;;;;;;5.50;4.43;;;;;;;17.70;60.16;99537.94;4397233;32;20827;-84
2023/06/18 02:41:47;;;;;;;6.80;4.45;;;;;;;17.68;60.16;99539.00;4423630;32;20074;-83
2023/06/18 02:44:13;;;;;;;8.25;4.28;;;;;;;17.64;60.15;99540.09;4397027;32;20130;-83
2023/06/18 02:46:38;;;;;;;5.35;3.92;;;;;;;17.38;60.14;99547.88;4422789;32;30380;-83
2023/06/18 02:49:04;;;;;;;10.98;4.70;;;;;;;17.50;60.14;99548.88;4408528;32;36926;-84
2023/06/18 02:51:29;;;;;;;7.65;4.55;;;;;;;17.36;60.14;99554.16;4383734;32;26160;-84
2023/06/18 02:53:55;;;;;;;7.35;4.72;;;;;;;17.54;60.15;99553.00;4423282;32;20130;-84
2023/06/18 02:56:21;;;;;;;5.60;4.03;;;;;;;17.43;60.14;99556.31;4423453;32;20124;-84
2023/06/18 02:58:51;;;;;;;8.18;5.10;;;;;;;17.28;60.13;99559.94;4423364;32;20112;-85
2023/06/18 03:01:19;;;;;;;9.98;4.62;;;;;;;17.34;60.13;99566.59;4409871;32;20401;-83
2023/06/18 03:03:44;;;;;;;7.47;4.37;;;;;;;17.36;60.14;99570.81;4397328;32;20101;-84
2023/06/18 03:06:09;;;;;;;8.45;4.28;;;;;;;17.28;60.14;99562.56;4409302;32;20120;-84
2023/06/18 03:08:35;;;;;;;7.35;4.65;;;;;;;17.24;60.13;99576.81;4408411;32;35713;-84
2023/06/18 03:11:00;;;;;;;6.43;4.43;;;;;;;17.58;60.15;99575.56;4409194;32;20542;-84
2023/06/18 03:13:26;;;;;;;6.93;4.70;;;;;;;17.65;60.16;99573.38;4422616;32;27037;-84
2023/06/18 03:15:51;;;;;;;9.95;4.72;;;;;;;17.47;60.15;99565.69;4423161;32;20106;-84
2023/06/18 03:18:16;;;;;;;8.20;4.53;;;;;;;17.45;60.14;99564.94;4408198;32;33958;-84
2023/06/18 03:20:45;;;;;;;6.62;4.35;;;;;;;17.51;60.14;99566.37;4422860;32;20125;-83
2023/06/18 03:23:10;;;;;;;7.25;4.25;;;;;;;17.44;60.14;99568.53;4409060;32;20113;-84
2023/06/18 03:25:36;;;;;;;7.97;4.78;;;;;;;17.31;60.14;99575.50;4408961;32;20109;-84
2023/06/18 03:28:01;;;;;;;9.40;4.70;;;;;;;17.49;60.15;99571.69;4408892;32;20090;-84
2023/06/18 03:30:26;;;;;;;6.18;4.25;;;;;;;17.62;60.16;99569.16;4408689;32;20094;-84
2023/06/18 03:32:55;;;;;;;9.23;3.87;;;;;;;17.58;60.15;99572.94;4410388;32;20142;-85
2023/06/18 03:35:21;;;;;;;5.60;3.75;;;;;;;17.66;60.16;99570.62;4386378;32;20541;-83
2023/06/18 03:37:46;;;;;;;6.37;4.30;;;;;;;17.50;60.14;99570.75;4398609;32;20101;-84
2023/06/18 03:40:12;;;;;;;7.18;4.18;;;;;;;17.61;60.15;99574.50;4397811;32;20112;-84
2023/06/18 03:42:37;;;;;;;8.65;4.12;;;;;;;17.53;60.16;99575.00;4410354;32;20147;-84
2023/06/18 03:45:03;;;;;;;8.50;4.82;;;;;;;17.79;60.16;99576.00;4424559;32;20106;-84
2023/06/18 03:47:29;;;;;;;5.45;3.95;;;;;;;17.78;60.16;99572.53;4398147;32;20113;-84
2023/06/18 03:49:54;;;;;;;6.43;4.05;;;;;;;17.87;60.17;99565.81;4410706;32;20165;-84
2023/06/18 03:52:20;;;;;;;7.75;4.55;;;;;;;17.99;60.17;99570.31;4410912;32;20124;-84
2023/06/18 03:54:46;;;;;;;6.40;4.15;;;;;;;18.01;60.17;99576.31;4425056;32;20141;-85
2023/06/18 03:57:12;;;;;;;6.82;4.30;;;;;;;18.21;60.18;99574.97;4410797;32;20514;-85
2023/06/18 03:59:37;;;;;;;5.37;3.90;;;;;;;18.26;60.19;99575.53;4424805;32;20090;-85
2023/06/18 04:02:03;;;;;;;5.03;3.72;;;;;;;18.29;60.18;99571.84;4410382;32;20129;-85
2023/06/18 04:04:28;;;;;;;5.43;3.95;;;;;;;18.42;60.19;99570.06;4424490;32;20102;-85
2023/06/18 04:06:54;;;;;;;6.07;3.78;;;;;;;18.38;60.20;99563.31;4410593;32;20111;-84
2023/06/18 04:09:19;;;;;;;7.05;4.53;;;;;;;18.56;60.20;99567.37;4410055;32;27501;-84
2023/06/18 04:11:45;;;;;;;5.97;4.60;;;;;;;18.40;60.19;99579.88;4424436;32;20156;-84
2023/06/18 04:14:11;;;;;;;6.60;4.37;;;;;;;18.52;60.20;99578.22;4397429;32;20489;-84
2023/06/18 04:16:36;;;;;;;6.75;3.65;;;;;;;18.48;60.20;99580.22;4410219;32;20110;-84
2023/06/18 04:19:02;;;;;;;8.23;3.80;;;;;;;18.65;60.21;99579.94;4423751;32;20107;-84
2023/06/18 04:21:27;;;;;;;8.27;4.57;;;;;;;18.61;60.21;99575.78;4409544;32;23772;-84
2023/06/18 04:23:53;;;;;;;7.93;4.43;;;;;;;18.59;60.20;99584.75;4410428;32;20102;-83
2023/06/18 04:26:19;;;;;;;10.70;3.75;;;;;;;18.50;60.20;99582.75;4424624;32;20109;-84
2023/06/18 04:28:44;;;;;;;7.10;4.18;;;;;;;18.88;60.22;99591.56;4397840;32;20148;-83
2023/06/18 04:31:10;;;;;;;7.40;3.78;;;;;;;18.89;60.22;99581.84;4410381;32;20443;-84
2023/06/18 04:33:36;;;;;;;9.38;4.20;;;;;;;18.85;60.22;99580.38;4410641;32;20185;-83
2023/06/18 04:36:01;;;;;;;6.68;4.70;;;;;;;18.77;60.22;99586.19;4424358;32;20089;-84
2023/06/18 04:38:27;;;;;;;9.60;4.78;;;;;;;18.97;60.22;99582.19;4410527;32;20156;-84
2023/06/18 04:40:52;;;;;;;8.27;4.60;;;;;;;18.99;60.22;99589.03;4424410;32;20109;-84
2023/06/18 04:43:18;;;;;;;5.90;4.12;;;;;;;19.13;60.23;99597.78;4408827;32;28373;-83
2023/06/18 04:45:46;;;;;;;7.22;3.60;;;;;;;19.16;60.23;99595.75;4424332;32;20451;-84
2023/06/18 04:48:14;;;;;;;7.78;4.12;;;;;;;19.18;60.23;99600.97;4396980;32;30209;-84
2023/06/18 04:50:39;;;;;;;5.75;4.05;;;;;;;19.21;60.23;99598.94;4397770;32;20128;-84
2023/06/18 04:53:05;;;;;;;7.50;4.00;;;;;;;19.24;60.24;99597.87;4424558;32;20121;-84
2023/06/18 04:55:30;;;;;;;7.05;3.80;;;;;;;19.32;60.24;99600.81;4424339;32;20145;-84
2023/06/18 04:57:56;;;;;;;6.35;3.67;;;;;;;19.42;60.25;99598.38;4409737;32;29528;-84
2023/06/18 05:00:21;;;;;;;6.82;3.78;;;;;;;19.51;60.25;99601.22;4424457;32;20155;-84
2023/06/18 05:02:47;;;;;;;7.70;3.65;;;;;;;19.58;60.26;99612.19;4424403;32;20101;-84
2023/06/18 05:05:12;;;;;;;7.00;3.80;;;;;;;19.48;60.25;99606.72;4410441;32;20097;-83
2023/06/18 05:07:38;;;;;;;7.30;4.40;;;;;;;19.61;60.25;99611.97;4410155;32;20501;-84
2023/06/18 05:10:04;;;;;;;7.53;4.03;;;;;;;19.80;60.27;99616.78;4423624;32;28055;-84
2023/06/18 05:12:29;;;;;;;8.55;4.15;;;;;;;19.76;60.26;99618.81;4397863;32;20137;-84
2023/06/18 05:14:55;;;;;;;6.80;3.87;;;;;;;19.99;60.27;99621.59;4410099;32;20858;-84
2023/06/18 05:17:20;;;;;;;8.73;4.03;;;;;;;19.99;60.27;99626.87;4409832;32;25013;-84
2023/06/18 05:19:46;;;;;;;8.13;4.03;;;;;;;19.87;60.27;99620.66;4424207;32;20101;-85
2023/06/18 05:22:11;;;;;;;8.02;3.85;;;;;;;19.87;60.27;99624.19;4397548;32;20106;-84
2023/06/18 05:24:36;;;;;;;6.62;3.83;;;;;;;19.90;60.27;99631.03;4410474;32;20140;-84
2023/06/18 05:27:02;;;;;;;5.07;3.62;;;;;;;19.98;60.27;99625.19;4410367;32;20105;-85
2023/06/18 05:29:27;;;;;;;6.70;4.45;;;;;;;20.08;60.29;99632.31;4410456;32;20370;-85
2023/06/18 05:31:53;;;;;;;4.70;3.55;;;;;;;20.11;60.29;99631.25;4423838;32;22538;-84
2023/06/18 05:34:18;;;;;;;5.18;3.42;;;;;;;20.15;60.28;99632.75;4410024;32;20114;-84
2023/06/18 05:36:43;;;;;;;7.68;4.45;;;;;;;20.26;60.29;99630.13;4423500;32;30955;-84
2023/06/18 05:39:10;;;;;;;7.15;4.37;;;;;;;20.21;60.29;99637.56;4423828;32;22754;-84
2023/06/18 05:41:35;;;;;;;5.60;3.97;;;;;;;20.24;60.30;99637.34;4397726;32;20114;-84
2023/06/18 05:44:01;;;;;;;5.55;3.72;;;;;;;20.37;60.29;99638.13;4397609;32;20093;-85
2023/06/18 05:46:26;;;;;;;4.78;3.45;;;;;;;20.51;60.30;99637.97;4410067;32;20426;-84
2023/06/18 05:48:52;;;;;;;8.57;3.72;;;;;;;20.72;60.32;99638.16;4423489;32;20094;-84
2023/06/18 05:51:17;;;;;;;5.18;3.65;;;;;;;21.01;60.33;99635.91;4396536;32;31271;-85
2023/06/18 05:53:42;;;;;;;5.43;3.45;;;;;;;21.00;60.32;99644.81;4410176;32;20387;-84
2023/06/18 05:56:08;;;;;;;4.68;3.42;;;;;;;21.17;60.33;99637.41;4384415;32;20161;-84
2023/06/18 05:58:33;;;;;;;6.28;3.40;;;;;;;21.34;60.35;99642.25;4424248;32;20138;-85
2023/06/18 06:00:59;;;;;;;5.28;3.72;;;;;;;21.37;60.35;99636.72;4424269;32;20142;-85
2023/06/18 06:03:25;;;;;;;7.75;4.37;;;;;;;21.47;60.35;99639.47;4409483;32;26976;-84
2023/06/18 06:05:50;;;;;;;5.10;3.62;;;;;;;21.65;60.37;99636.22;4410164;32;20125;-84
2023/06/18 06:08:16;;;;;;;8.30;3.72;;;;;;;21.81;60.37;99638.50;4397049;32;20165;-84
2023/06/18 06:10:41;;;;;;;6.80;4.18;;;;;;;21.86;60.38;99638.97;4423784;32;20137;-86
2023/06/18 06:13:07;;;;;;;5.65;3.65;;;;;;;21.80;60.37;99642.13;4409810;32;20124;-85
2023/06/18 06:15:32;;;;;;;4.97;3.60;;;;;;;21.91;60.37;99638.59;4424029;32;20077;-84
2023/06/18 06:17:57;;;;;;;5.85;3.53;;;;;;;21.92;60.37;99640.28;4409811;32;20441;-85
2023/06/18 06:20:23;;;;;;;5.70;3.55;;;;;;;21.93;60.38;99644.59;4384560;32;20172;-85
2023/06/18 06:22:49;;;;;;;8.50;3.80;;;;;;;22.18;60.39;99646.97;4383997;32;33787;-85
2023/06/18 06:25:15;;;;;;;4.65;3.28;;;;;;;22.18;60.39;99641.69;4409678;32;20159;-84
2023/06/18 06:27:42;;;;;;;5.47;3.87;;;;;;;22.32;60.39;99635.25;4397007;32;20489;-85
2023/06/18 06:30:08;;;;;;;5.40;4.05;;;;;;;22.38;60.40;99637.41;4410006;32;20110;-84
2023/06/18 06:32:35;;;;;;;8.93;3.72;;;;;;;22.37;60.39;99635.72;4409790;32;20371;-84
2023/06/18 06:35:03;;;;;;;6.00;4.07;;;;;;;22.43;60.40;99642.31;4423749;32;20102;-85
2023/06/18 06:37:29;;;;;;;7.90;3.83;;;;;;;22.75;60.42;99635.19;4397359;32;20111;-84
2023/06/18 06:39:55;;;;;;;7.50;4.03;;;;;;;22.93;60.43;99640.75;4397298;32;20707;-84
2023/06/18 06:42:21;;;;;;;5.35;3.97;;;;;;;23.06;60.44;99645.88;4396920;32;20431;-84
2023/06/18 06:44:46;;;;;;;5.70;4.35;;;;;;;23.22;60.45;99643.59;4423607;32;20104;-85
2023/06/18 06:47:11;;;;;;;6.28;3.85;;;;;;;23.28;60.45;99656.34;4422774;32;26552;-84
2023/06/18 06:49:37;;;;;;;4.70;3.70;;;;;;;23.51;60.46;99644.56;4409382;32;20464;-84
2023/06/18 06:52:02;;;;;;;5.55;4.07;;;;;;;23.64;60.46;99643.50;4423211;32;20471;-85
2023/06/18 06:54:28;;;;;;;4.25;3.53;;;;;;;23.77;60.48;99654.75;4396975;32;20115;-84
2023/06/18 06:56:53;;;;;;;5.50;3.40;;;;;;;23.85;60.47;99647.78;4422851;32;23252;-84
2023/06/18 06:59:19;;;;;;;4.35;3.42;;;;;;;24.19;60.49;99642.13;4422261;32;33858;-82
2023/06/18 07:01:44;;;;;;;5.72;3.10;;;;;;;24.26;60.49;99640.56;4422307;32;20089;-82
2023/06/18 07:04:10;;;;;;;5.28;3.20;;;;;;;24.23;60.50;99640.00;4421630;32;20086;-83
2023/06/18 07:06:38;;;;;;;4.90;3.42;;;;;;;24.35;60.50;99634.44;4408441;32;20093;-83
2023/06/18 07:09:04;;;;;;;4.22;3.17;;;;;;;24.32;60.50;99645.38;4397493;32;20132;-83
2023/06/18 07:11:29;;;;;;;4.50;3.08;;;;;;;24.41;60.50;99636.56;4409750;32;20089;-83
2023/06/18 07:13:55;;;;;;;4.05;3.22;;;;;;;24.55;60.51;99639.75;4423802;32;32983;-85
2023/06/18 07:16:20;;;;;;;4.03;3.05;;;;;;;24.55;60.52;99626.47;4423280;32;35705;-84
2023/06/18 07:18:46;;;;;;;4.53;3.25;;;;;;;24.47;60.51;99632.50;4424472;32;20144;-83
2023/06/18 07:21:11;;;;;;;4.25;3.37;;;;;;;24.53;60.52;99626.59;4410330;32;20442;-84
2023/06/18 07:23:37;;;;;;;5.10;3.08;;;;;;;24.78;60.53;99626.00;4410038;32;20416;-82
2023/06/18 07:26:03;;;;;;;4.60;3.33;;;;;;;24.91;60.54;99622.22;4409149;32;20145;-82
2023/06/18 07:28:28;;;;;;;4.80;3.37;;;;;;;24.73;60.52;99627.44;4385865;32;20185;-83
2023/06/18 07:30:54;;;;;;;8.48;4.07;;;;;;;24.78;60.53;99625.16;4410638;32;20094;-83
2023/06/18 07:33:20;;;;;;;4.78;3.37;;;;;;;24.82;60.52;99633.72;4424696;32;20130;-83
2023/06/18 07:35:45;;;;;;;5.43;2.92;;;;;;;24.96;60.53;99626.13;4424210;32;20164;-82
2023/06/18 07:38:11;;;;;;;5.00;3.22;;;;;;;24.99;60.54;99622.38;4424356;32;20431;-83
2023/06/18 07:40:38;;;;;;;3.37;2.70;;;;;;;25.02;60.54;99625.56;4410381;32;20172;-83
2023/06/18 07:43:03;;;;;;;3.47;2.85;;;;;;;25.18;60.55;99622.31;4398427;32;20185;-83
2023/06/18 07:45:29;;;;;;;3.95;2.90;;;;;;;25.43;60.56;99622.63;4397798;32;20372;-82
2023/06/18 07:47:54;;;;;;;6.35;3.12;;;;;;;25.53;60.56;99618.09;4398249;32;20180;-83
2023/06/18 07:50:20;;;;;;;3.12;2.70;;;;;;;25.60;60.57;99619.19;4410752;32;20115;-83
2023/06/18 07:52:46;;;;;;;6.15;2.53;;;;;;;25.65;60.57;99609.75;4410419;32;20106;-84
2023/06/18 07:55:11;;;;;;;4.25;2.30;;;;;;;25.83;60.58;99607.19;4409652;32;37348;-84
2023/06/18 07:57:37;;;;;;;3.15;2.40;;;;;;;25.96;60.59;99612.97;4398076;32;20145;-83
2023/06/18 08:00:03;;;;;;;2.87;2.42;;;;;;;25.72;60.58;99617.19;4397997;32;20097;-84
2023/06/18 08:02:29;;;;;;;4.03;2.87;;;;;;;25.81;60.58;99613.66;4397984;32;20152;-84
2023/06/18 08:04:55;;;;;;;3.10;2.22;;;;;;;26.08;60.59;99610.09;4424625;32;20156;-85
2023/06/18 08:07:20;;;;;;;2.83;2.33;;;;;;;25.94;60.59;99614.09;4410695;32;20137;-84
2023/06/18 08:09:45;;;;;;;3.83;2.45;;;;;;;25.97;60.59;99609.31;4424601;32;20147;-85
2023/06/18 08:12:11;;;;;;;2.70;2.05;;;;;;;26.24;60.60;99618.25;4424090;32;25621;-84
2023/06/18 08:14:37;;;;;;;2.62;2.10;;;;;;;26.41;60.62;99600.59;4411093;32;20145;-84
2023/06/18 08:17:02;;;;;;;4.07;2.05;;;;;;;26.39;60.61;99611.41;4424951;32;20171;-85
2023/06/18 08:19:27;;;;;;;3.97;2.30;;;;;;;26.23;60.60;99614.72;4410530;32;20427;-84
2023/06/18 08:21:53;;;;;;;3.78;2.30;;;;;;;26.26;60.62;99608.25;4424741;32;20086;-84
2023/06/18 08:24:18;;;;;;;3.37;2.15;;;;;;;26.21;60.60;99608.72;4410785;32;20113;-84
2023/06/18 08:26:44;;;;;;;5.68;3.10;;;;;;;26.20;60.60;99611.53;4424750;32;20128;-84
2023/06/18 08:29:09;;;;;;;2.67;1.95;;;;;;;26.10;60.60;99610.78;4420620;32;20125;-83
2023/06/18 08:31:35;;;;;;;2.80;2.35;;;;;;;26.38;60.62;99606.25;4399023;32;20091;-84
2023/06/18 08:34:00;;;;;;;3.28;2.33;;;;;;;26.65;60.64;99599.94;4381314;32;20117;-84
2023/06/18 08:36:26;;;;;;;5.72;2.90;;;;;;;26.80;60.64;99606.41;4406025;32;20110;-84
2023/06/18 08:38:51;;;;;;;2.60;2.05;;;;;;;27.05;60.65;99600.25;4407588;32;20143;-84
2023/06/18 08:41:17;;;;;;;3.12;2.03;;;;;;;27.07;60.65;99603.63;4409320;32;20105;-85
2023/06/18 08:43:42;;;;;;;3.33;2.47;;;;;;;26.99;60.64;99594.69;4422835;32;20100;-85
2023/06/18 08:46:14;;;;;;;3.22;2.35;;;;;;;27.37;60.67;99610.28;4409201;32;20154;-84
2023/06/18 08:48:45;;;;;;;4.35;2.30;;;;;;;27.48;60.67;99598.47;4422823;32;20459;-84
2023/06/18 08:51:11;;;;;;;2.30;2.00;;;;;;;27.31;60.66;99596.72;4406275;32;20161;-84
2023/06/18 08:53:40;;;;;;;3.87;2.40;;;;;;;27.30;60.66;99600.41;4388086;32;20467;-85
2023/06/18 08:56:06;;;;;;;3.15;2.25;;;;;;;27.51;60.67;99604.34;4406115;32;20138;-84
2023/06/18 08:58:33;;;;;;;3.10;2.17;;;;;;;27.85;60.69;99602.63;4390370;32;20112;-83
2023/06/18 09:00:59;;;;;;;7.87;2.60;;;;;;;28.20;60.70;99599.69;4393523;32;20074;-83
2023/06/18 09:03:24;;;;;;;5.40;2.33;;;;;;;28.37;60.72;99596.03;4416965;32;20115;-84
2023/06/18 09:05:50;;;;;;;2.70;2.20;;;;;;;28.29;60.72;99598.72;4408925;32;20097;-84
2023/06/18 09:08:15;;;;;;;3.95;2.40;;;;;;;28.71;60.74;99589.69;4393222;32;20141;-85
2023/06/18 09:10:41;;;;;;;3.28;2.53;;;;;;;28.73;60.73;99591.19;4393485;32;20137;-84
2023/06/18 09:13:06;;;;;;;2.47;2.22;;;;;;;28.72;60.73;99586.84;4421597;32;20094;-85
2023/06/18 09:15:31;;;;;;;3.53;2.22;;;;;;;28.82;60.74;99586.66;4395834;32;20094;-84
2023/06/18 09:17:57;;;;;;;2.87;2.37;;;;;;;28.93;60.75;99589.03;4422047;32;20128;-84
2023/06/18 09:20:22;;;;;;;4.53;2.70;;;;;;;29.12;60.76;99592.34;4408671;32;20136;-83
2023/06/18 09:22:48;;;;;;;2.45;2.00;;;;;;;29.40;60.77;99590.88;4407739;32;26671;-83
2023/06/18 09:25:22;;;;;;;2.40;2.08;;;;;;;29.56;60.78;99590.81;4406086;32;20098;-85
2023/06/18 09:27:48;;;;;;;2.70;2.42;;;;;;;29.51;60.78;99587.84;4408136;32;20474;-84
2023/06/18 09:30:20;;;;;;;4.35;2.70;;;;;;;29.57;60.78;99588.97;4408453;32;20107;-86
2023/06/18 09:32:46;;;;;;;3.12;2.58;;;;;;;29.77;60.79;99589.37;4383943;32;20458;-84
2023/06/18 09:35:15;;;;;;;2.75;2.10;;;;;;;29.95;60.81;99584.59;4388781;32;20109;-85
2023/06/18 09:37:41;;;;;;;4.57;2.42;;;;;;;29.94;60.79;99585.59;4412677;32;20082;-84
2023/06/18 09:40:22;;;;;;;5.90;2.97;;;;;;;29.95;60.79;99595.31;4405860;32;25772;-85
2023/06/18 09:42:51;;;;;;;2.47;2.28;;;;;;;29.85;60.79;99589.34;4408563;32;20169;-85
2023/06/18 09:45:17;;;;;;;3.05;2.40;;;;;;;29.84;60.79;99588.53;4396119;32;20141;-85
2023/06/18 09:47:49;;;;;;;6.05;2.92;;;;;;;29.73;60.79;99594.28;4405941;32;20086;-84
2023/06/18 09:50:15;;;;;;;3.83;2.33;;;;;;;29.72;60.79;99589.09;4406527;32;20761;-85
2023/06/18 09:52:42;;;;;;;3.08;2.37;;;;;;;29.82;60.80;99589.72;4408800;32;20105;-84
2023/06/18 09:55:31;;;;;;;3.03;2.45;;;;;;;29.88;60.80;99586.31;4406063;32;20176;-84
2023/06/18 09:57:57;;;;;;;3.17;2.62;;;;;;;29.64;60.79;99588.13;4400995;32;20144;-83
2023/06/18 10:00:24;;;;;;;2.90;2.30;;;;;;;29.84;60.80;99582.31;4408838;32;20106;-83
2023/06/18 10:02:49;;;;;;;6.62;2.67;;;;;;;29.88;60.80;99584.47;4422260;32;20094;-84
2023/06/18 10:05:15;;;;;;;3.42;2.45;;;;;;;29.94;60.80;99596.34;4417344;32;20156;-84
2023/06/18 10:07:40;;;;;;;3.75;2.53;;;;;;;29.77;60.79;99590.22;4388911;32;20090;-83
2023/06/18 10:10:13;;;;;;;3.83;2.72;;;;;;;29.79;60.78;99590.03;4393273;32;20142;-83
2023/06/18 10:12:39;;;;;;;3.25;2.58;;;;;;;30.01;60.80;99591.09;4403932;32;20585;-84
2023/06/18 10:15:05;;;;;;;3.22;2.72;;;;;;;29.98;60.81;99588.75;4422368;32;20174;-83
2023/06/18 10:17:33;;;;;;;6.47;2.60;;;;;;;30.20;60.82;99590.66;4406779;32;20123;-83
2023/06/18 10:20:07;;;;;;;2.50;2.25;;;;;;;30.16;60.81;99587.50;4406014;32;20090;-82
2023/06/18 10:22:45;;;;;;;3.83;2.90;;;;;;;30.24;60.81;99579.38;4405378;32;20176;-83
2023/06/18 10:25:10;;;;;;;4.53;3.47;;;;;;;30.23;60.81;99577.72;4405535;32;20153;-84
2023/06/18 10:27:36;;;;;;;3.62;3.00;;;;;;;30.21;60.82;99585.09;4403675;32;20501;-83
2023/06/18 10:30:01;;;;;;;5.60;2.70;;;;;;;30.34;60.82;99586.38;4398723;32;20363;-83
2023/06/18 10:32:27;;;;;;;4.90;2.70;;;;;;;30.29;60.82;99586.91;4419901;32;20175;-82
2023/06/18 10:34:54;;;;;;;5.10;2.83;;;;;;;30.08;60.81;99594.78;4405840;32;20140;-82
2023/06/18 10:37:20;;;;;;;2.85;2.55;;;;;;;29.80;60.80;99591.72;4406302;32;20119;-84
2023/06/18 10:39:45;;;;;;;3.87;2.60;;;;;;;29.79;60.79;99593.56;4408052;32;20597;-82
2023/06/18 10:42:12;;;;;;;4.10;2.85;;;;;;;29.83;60.80;99589.53;4393060;32;20140;-82
2023/06/18 10:44:46;;;;;;;3.28;2.90;;;;;;;29.84;60.80;99585.00;4386165;32;20475;-82
2023/06/18 10:47:18;;;;;;;3.65;3.03;;;;;;;30.07;60.80;99588.59;4420842;32;20413;-82
2023/06/18 10:50:02;;;;;;;3.40;2.90;;;;;;;30.08;60.81;99592.94;4422097;32;20081;-82
2023/06/18 10:52:34;;;;;;;3.65;2.62;;;;;;;30.09;60.81;99589.25;4422179;32;20119;-80
2023/06/18 10:55:18;;;;;;;3.85;2.60;;;;;;;30.11;60.80;99586.38;4407336;32;20512;-81
2023/06/18 10:57:45;;;;;;;3.83;2.65;;;;;;;30.24;60.82;99574.00;4405430;32;20402;-82
2023/06/18 11:00:30;;;;;;;3.65;3.05;;;;;;;30.52;60.84;99577.00;4394244;32;20081;-81
2023/06/18 11:03:11;;;;;;;4.32;3.05;;;;;;;30.88;60.84;99581.69;4405930;32;20451;-82
2023/06/18 11:05:46;;;;;;;4.30;3.00;;;;;;;31.19;60.87;99573.47;4407984;32;20110;-83
2023/06/18 11:08:13;;;;;;;5.03;3.30;;;;;;;30.97;60.86;99575.22;4421590;32;20116;-81
2023/06/18 11:10:48;;;;;;;4.10;2.70;;;;;;;30.88;60.85;99579.00;4405030;32;20432;-84
2023/06/18 11:13:13;;;;;;;3.85;2.97;;;;;;;30.76;60.85;99589.41;4407942;32;20208;-82
2023/06/18 11:15:52;;;;;;;3.83;2.97;;;;;;;30.58;60.84;99574.59;4392867;32;20164;-81
2023/06/18 11:18:20;;;;;;;3.93;3.00;;;;;;;30.43;60.82;99578.06;4412681;32;20140;-83
2023/06/18 11:20:46;;;;;;;4.82;3.15;;;;;;;30.16;60.82;99573.25;4421749;32;20097;-83
2023/06/18 11:23:11;;;;;;;3.45;2.90;;;;;;;30.20;60.82;99577.22;4391820;32;20154;-82
2023/06/18 11:25:37;;;;;;;3.78;3.00;;;;;;;30.43;60.82;99570.00;4415113;32;20153;-82
2023/06/18 11:28:02;;;;;;;4.28;2.95;;;;;;;30.67;60.85;99563.59;4419786;32;20161;-81
2023/06/18 11:30:31;;;;;;;4.07;2.87;;;;;;;30.60;60.84;99573.38;4405563;32;20463;-81
2023/06/18 11:32:56;;;;;;;3.47;3.00;;;;;;;30.72;60.84;99557.66;4421369;32;20132;-81